createdAt,value
2023-05-15T00:00:49.956Z,24.26
2023-05-15T00:01:49.961Z,24.24
2023-05-15T00:02:49.913Z,24.26
2023-05-15T00:03:49.907Z,24.24
2023-05-15T00:04:49.849Z,24.24
2023-05-15T00:05:49.883Z,24.24
2023-05-15T00:06:49.805Z,24.24
2023-05-15T00:07:49.841Z,24.26
2023-05-15T00:08:49.786Z,24.24
2023-05-15T00:09:49.834Z,24.26
2023-05-15T00:11:00.616Z,24.26
2023-05-15T00:11:49.811Z,24.24
2023-05-15T00:12:49.743Z,24.23
2023-05-15T00:13:49.796Z,24.20
2023-05-15T00:14:49.719Z,24.21
2023-05-15T00:15:49.832Z,24.21
2023-05-15T00:16:49.713Z,24.23
2023-05-15T00:17:49.791Z,24.24
2023-05-15T00:18:49.687Z,24.21
2023-05-15T00:19:49.725Z,24.21
2023-05-15T00:20:49.649Z,24.23
2023-05-15T00:21:49.697Z,24.21
2023-05-15T00:22:49.633Z,24.23
2023-05-15T00:23:49.673Z,24.20
2023-05-15T00:24:49.620Z,24.20
2023-05-15T00:25:49.672Z,24.21
2023-05-15T00:26:49.593Z,24.23
2023-05-15T00:27:49.643Z,24.23
2023-05-15T00:28:49.577Z,24.21
2023-05-15T00:29:49.624Z,24.21
2023-05-15T00:30:49.561Z,24.20
2023-05-15T00:31:49.677Z,24.20
2023-05-15T00:32:49.576Z,24.20
2023-05-15T00:33:49.565Z,24.20
2023-05-15T00:34:49.523Z,24.20
2023-05-15T00:35:49.557Z,24.20
2023-05-15T00:36:49.493Z,24.21
2023-05-15T00:37:49.532Z,24.20
2023-05-15T00:38:49.470Z,24.18
2023-05-15T00:39:49.522Z,24.20
2023-05-15T00:40:49.448Z,24.21
2023-05-15T00:41:49.497Z,24.21
2023-05-15T00:42:49.434Z,24.18
2023-05-15T00:43:49.610Z,24.18
2023-05-15T00:44:49.418Z,24.18
2023-05-15T00:45:49.453Z,24.18
2023-05-15T00:46:49.434Z,24.18
2023-05-15T00:47:49.466Z,24.18
2023-05-15T00:48:49.364Z,24.18
2023-05-15T00:49:49.413Z,24.20
2023-05-15T00:50:49.347Z,24.18
2023-05-15T00:51:49.384Z,24.20
2023-05-15T00:52:49.352Z,24.18
2023-05-15T00:53:49.402Z,24.18
2023-05-15T00:54:49.307Z,24.17
2023-05-15T00:55:49.357Z,24.18
2023-05-15T00:56:49.294Z,24.20
2023-05-15T00:57:49.332Z,24.16
2023-05-15T00:58:49.277Z,24.18
2023-05-15T00:59:49.306Z,24.17
2023-05-15T01:00:49.282Z,24.20
2023-05-15T01:01:49.341Z,24.20
2023-05-15T01:02:49.336Z,24.18
2023-05-15T01:03:49.343Z,24.18
2023-05-15T01:04:49.197Z,24.20
2023-05-15T01:05:49.236Z,24.18
2023-05-15T01:06:49.177Z,24.16
2023-05-15T01:07:49.226Z,24.17
2023-05-15T01:08:49.163Z,24.17
2023-05-15T01:09:49.232Z,24.16
2023-05-15T01:10:49.131Z,24.16
2023-05-15T01:11:49.178Z,24.16
2023-05-15T01:12:49.110Z,24.17
2023-05-15T01:13:49.157Z,24.17
2023-05-15T01:14:49.092Z,24.18
2023-05-15T01:15:49.136Z,24.14
2023-05-15T01:16:49.068Z,24.17
2023-05-15T01:17:49.157Z,24.17
2023-05-15T01:18:49.179Z,24.16
2023-05-15T01:19:49.159Z,24.16
2023-05-15T01:20:49.029Z,24.16
2023-05-15T01:21:49.076Z,24.16
2023-05-15T01:22:49.009Z,24.16
2023-05-15T01:23:49.051Z,24.16
2023-05-15T01:24:48.986Z,24.16
2023-05-15T01:25:49.159Z,24.13
2023-05-15T01:26:48.974Z,24.16
2023-05-15T01:27:49.014Z,24.16
2023-05-15T01:28:48.953Z,24.17
2023-05-15T01:29:48.982Z,24.16
2023-05-15T01:30:48.928Z,24.16
2023-05-15T01:31:49.039Z,24.16
2023-05-15T01:32:48.944Z,24.16
2023-05-15T01:33:48.955Z,24.14
2023-05-15T01:34:48.877Z,24.14
2023-05-15T01:35:48.918Z,24.13
2023-05-15T01:36:48.853Z,24.16
2023-05-15T01:37:48.920Z,24.11
2023-05-15T01:38:48.834Z,24.13
2023-05-15T01:39:48.887Z,24.14
2023-05-15T01:40:48.811Z,24.14
2023-05-15T01:41:48.850Z,24.16
2023-05-15T01:42:48.797Z,24.13
2023-05-15T01:43:48.837Z,24.14
2023-05-15T01:44:48.779Z,24.13
2023-05-15T01:45:48.809Z,24.11
2023-05-15T01:46:48.869Z,24.11
2023-05-15T01:47:48.897Z,24.13
2023-05-15T01:48:48.726Z,24.14
2023-05-15T01:49:48.764Z,24.14
2023-05-15T01:50:48.711Z,24.13
2023-05-15T01:51:48.747Z,24.13
2023-05-15T01:52:48.681Z,24.13
2023-05-15T01:53:48.730Z,24.11
2023-05-15T01:54:48.664Z,24.13
2023-05-15T01:55:48.714Z,24.14
2023-05-15T01:56:48.641Z,24.13
2023-05-15T01:57:48.702Z,24.11
2023-05-15T01:58:48.732Z,24.11
2023-05-15T01:59:48.662Z,24.13
2023-05-15T02:00:48.605Z,24.10
2023-05-15T02:01:48.692Z,24.13
2023-05-15T02:02:48.690Z,24.11
2023-05-15T02:03:48.704Z,24.13
2023-05-15T02:04:48.556Z,24.11
2023-05-15T02:05:48.606Z,24.11
2023-05-15T02:06:48.541Z,24.11
2023-05-15T02:07:48.595Z,24.13
2023-05-15T02:08:48.513Z,24.13
2023-05-15T02:09:48.565Z,24.10
2023-05-15T02:10:48.493Z,24.14
2023-05-15T02:11:48.544Z,24.11
2023-05-15T02:12:48.482Z,24.11
2023-05-15T02:13:48.523Z,24.11
2023-05-15T02:14:48.452Z,24.08
2023-05-15T02:15:48.523Z,24.10
2023-05-15T02:16:48.620Z,24.10
2023-05-15T02:17:48.558Z,24.11
2023-05-15T02:18:48.438Z,24.10
2023-05-15T02:19:48.459Z,24.10
2023-05-15T02:20:48.387Z,24.06
2023-05-15T02:21:48.452Z,24.10
2023-05-15T02:22:48.373Z,24.06
2023-05-15T02:23:48.499Z,24.10
2023-05-15T02:24:48.347Z,24.11
2023-05-15T02:25:48.419Z,24.10
2023-05-15T02:26:48.315Z,24.10
2023-05-15T02:27:48.434Z,24.10
2023-05-15T02:28:48.289Z,24.06
2023-05-15T02:29:48.366Z,24.10
2023-05-15T02:30:48.282Z,24.08
2023-05-15T02:31:48.391Z,24.06
2023-05-15T02:32:48.301Z,24.06
2023-05-15T02:33:48.326Z,24.06
2023-05-15T02:34:48.230Z,24.05
2023-05-15T02:35:48.296Z,24.08
2023-05-15T02:36:48.213Z,24.10
2023-05-15T02:37:48.287Z,24.06
2023-05-15T02:38:48.195Z,24.11
2023-05-15T02:39:48.256Z,24.05
2023-05-15T02:40:48.166Z,24.05
2023-05-15T02:41:48.238Z,24.08
2023-05-15T02:42:48.147Z,24.08
2023-05-15T02:43:48.222Z,24.06
2023-05-15T02:44:48.124Z,24.05
2023-05-15T02:45:48.204Z,24.05
2023-05-15T02:46:48.104Z,24.05
2023-05-15T02:47:48.194Z,24.08
2023-05-15T02:48:48.078Z,24.05
2023-05-15T02:49:48.166Z,24.06
2023-05-15T02:50:48.066Z,24.05
2023-05-15T02:51:48.123Z,24.06
2023-05-15T02:52:48.031Z,24.06
2023-05-15T02:53:48.121Z,24.05
2023-05-15T02:54:48.017Z,24.05
2023-05-15T02:55:48.105Z,24.06
2023-05-15T02:56:47.994Z,24.08
2023-05-15T02:57:48.064Z,24.05
2023-05-15T02:58:47.975Z,24.06
2023-05-15T02:59:48.049Z,24.03
2023-05-15T03:00:48.003Z,24.06
2023-05-15T03:01:48.033Z,24.06
2023-05-15T03:02:48.006Z,24.06
2023-05-15T03:03:48.057Z,24.05
2023-05-15T03:04:48.115Z,24.06
2023-05-15T03:05:47.982Z,24.02
2023-05-15T03:06:47.886Z,24.03
2023-05-15T03:07:47.966Z,24.03
2023-05-15T03:08:47.861Z,24.05
2023-05-15T03:09:47.946Z,24.05
2023-05-15T03:10:47.845Z,24.05
2023-05-15T03:11:47.907Z,24.03
2023-05-15T03:12:47.823Z,24.03
2023-05-15T03:13:47.894Z,24.06
2023-05-15T03:14:47.798Z,24.03
2023-05-15T03:15:47.887Z,24.03
2023-05-15T03:16:47.832Z,24.03
2023-05-15T03:17:47.911Z,24.05
2023-05-15T03:18:47.790Z,24.03
2023-05-15T03:19:47.835Z,24.06
2023-05-15T03:20:47.746Z,24.03
2023-05-15T03:21:47.759Z,24.05
2023-05-15T03:22:47.670Z,24.03
2023-05-15T03:23:47.746Z,24.03
2023-05-15T03:24:47.649Z,24.05
2023-05-15T03:25:47.729Z,24.06
2023-05-15T03:26:47.628Z,24.03
2023-05-15T03:27:47.681Z,24.03
2023-05-15T03:28:47.607Z,24.03
2023-05-15T03:29:47.687Z,24.05
2023-05-15T03:30:47.590Z,24.01
2023-05-15T03:31:47.685Z,24.02
2023-05-15T03:32:47.567Z,24.01
2023-05-15T03:33:47.624Z,24.03
2023-05-15T03:34:47.565Z,24.03
2023-05-15T03:35:47.608Z,24.01
2023-05-15T03:36:47.518Z,24.03
2023-05-15T03:37:47.584Z,24.02
2023-05-15T03:38:47.498Z,24.03
2023-05-15T03:39:47.585Z,24.02
2023-05-15T03:40:49.578Z,24.02
2023-05-15T03:41:47.553Z,24.03
2023-05-15T03:42:47.460Z,24.02
2023-05-15T03:43:47.518Z,24.02
2023-05-15T03:44:47.439Z,24.01
2023-05-15T03:45:47.495Z,24.02
2023-05-15T03:46:47.464Z,23.98
2023-05-15T03:47:47.514Z,24.02
2023-05-15T03:48:47.398Z,24.02
2023-05-15T03:49:47.474Z,24.03
2023-05-15T03:50:47.370Z,24.01
2023-05-15T03:51:47.467Z,24.03
2023-05-15T03:52:47.358Z,23.98
2023-05-15T03:53:47.416Z,24.03
2023-05-15T03:54:47.346Z,24.03
2023-05-15T03:55:47.390Z,24.02
2023-05-15T03:56:47.314Z,24.02
2023-05-15T03:57:47.390Z,24.01
2023-05-15T03:58:47.294Z,24.03
2023-05-15T03:59:47.361Z,24.02
2023-05-15T04:00:47.267Z,24.03
2023-05-15T04:02:02.887Z,24.03
2023-05-15T04:02:47.330Z,24.03
2023-05-15T04:03:47.310Z,24.02
2023-05-15T04:04:47.262Z,24.02
2023-05-15T04:05:47.298Z,24.02
2023-05-15T04:06:47.197Z,24.03
2023-05-15T04:07:47.279Z,24.01
2023-05-15T04:08:47.182Z,24.03
2023-05-15T04:09:47.246Z,24.01
2023-05-15T04:10:47.163Z,24.02
2023-05-15T04:11:47.243Z,24.03
2023-05-15T04:12:47.139Z,24.01
2023-05-15T04:13:47.204Z,24.02
2023-05-15T04:14:47.119Z,24.02
2023-05-15T04:15:47.201Z,24.03
2023-05-15T04:16:47.178Z,24.03
2023-05-15T04:17:47.182Z,24.05
2023-05-15T04:18:47.134Z,24.02
2023-05-15T04:19:47.148Z,24.01
2023-05-15T04:20:47.057Z,24.01
2023-05-15T04:21:47.133Z,24.01
2023-05-15T04:22:47.041Z,24.02
2023-05-15T04:23:47.107Z,24.02
2023-05-15T04:24:47.015Z,24.02
2023-05-15T04:25:47.119Z,24.02
2023-05-15T04:26:47.039Z,24.01
2023-05-15T04:27:47.057Z,24.01
2023-05-15T04:29:00.093Z,24.03
2023-05-15T04:29:47.053Z,24.02
2023-05-15T04:30:46.948Z,24.02
2023-05-15T04:31:47.064Z,24.01
2023-05-15T04:32:46.990Z,24.02
2023-05-15T04:33:48.223Z,24.02
2023-05-15T04:34:46.903Z,24.03
2023-05-15T04:35:46.972Z,24.03
2023-05-15T04:36:46.888Z,24.03
2023-05-15T04:37:46.959Z,24.02
2023-05-15T04:38:46.863Z,24.02
2023-05-15T04:39:46.994Z,24.02
2023-05-15T04:40:46.860Z,24.01
2023-05-15T04:41:46.917Z,24.03
2023-05-15T04:42:46.825Z,24.03
2023-05-15T04:43:46.964Z,24.02
2023-05-15T04:44:46.800Z,24.05
2023-05-15T04:45:46.955Z,24.03
2023-05-15T04:46:46.778Z,24.02
2023-05-15T04:47:46.893Z,24.05
2023-05-15T04:48:46.766Z,24.03
2023-05-15T04:49:46.825Z,24.05
2023-05-15T04:50:46.734Z,24.05
2023-05-15T04:51:46.801Z,24.06
2023-05-15T04:52:46.717Z,24.03
2023-05-15T04:53:46.792Z,24.03
2023-05-15T04:54:46.692Z,24.03
2023-05-15T04:55:46.762Z,24.05
2023-05-15T04:56:46.668Z,24.05
2023-05-15T04:57:46.738Z,24.05
2023-05-15T04:58:46.648Z,24.05
2023-05-15T04:59:46.717Z,24.05
2023-05-15T05:00:46.623Z,24.02
2023-05-15T05:01:46.758Z,24.03
2023-05-15T05:02:46.699Z,24.05
2023-05-15T05:03:46.789Z,24.05
2023-05-15T05:04:46.588Z,24.08
2023-05-15T05:05:46.663Z,24.05
2023-05-15T05:06:46.566Z,24.06
2023-05-15T05:07:46.641Z,24.08
2023-05-15T05:08:46.550Z,24.06
2023-05-15T05:09:46.622Z,24.05
2023-05-15T05:10:46.528Z,24.03
2023-05-15T05:11:46.600Z,24.06
2023-05-15T05:12:46.507Z,24.06
2023-05-15T05:13:46.580Z,24.06
2023-05-15T05:14:46.485Z,24.08
2023-05-15T05:15:46.576Z,24.08
2023-05-15T05:16:46.456Z,24.06
2023-05-15T05:17:46.588Z,24.10
2023-05-15T05:18:46.480Z,24.05
2023-05-15T05:19:46.512Z,24.05
2023-05-15T05:20:46.422Z,24.06
2023-05-15T05:21:46.501Z,24.08
2023-05-15T05:22:46.400Z,24.08
2023-05-15T05:23:46.477Z,24.10
2023-05-15T05:24:46.377Z,24.10
2023-05-15T05:25:46.448Z,24.08
2023-05-15T05:26:46.357Z,24.10
2023-05-15T05:27:46.445Z,24.08
2023-05-15T05:28:46.340Z,24.08
2023-05-15T05:29:46.395Z,24.11
2023-05-15T05:30:46.314Z,24.10
2023-05-15T05:31:46.559Z,24.10
2023-05-15T05:32:46.355Z,24.11
2023-05-15T05:33:46.388Z,24.10
2023-05-15T05:34:46.271Z,24.11
2023-05-15T05:35:46.342Z,24.13
2023-05-15T05:36:46.248Z,24.13
2023-05-15T05:37:46.312Z,24.11
2023-05-15T05:38:46.231Z,24.11
2023-05-15T05:39:46.292Z,24.13
2023-05-15T05:40:46.204Z,24.13
2023-05-15T05:41:46.269Z,24.13
2023-05-15T05:42:46.179Z,24.16
2023-05-15T05:43:46.249Z,24.14
2023-05-15T05:44:46.162Z,24.13
2023-05-15T05:45:46.238Z,24.16
2023-05-15T05:46:46.158Z,24.16
2023-05-15T05:47:46.265Z,24.16
2023-05-15T05:48:46.125Z,24.16
2023-05-15T05:49:46.193Z,24.17
2023-05-15T05:50:46.103Z,24.14
2023-05-15T05:51:46.165Z,24.14
2023-05-15T05:52:46.078Z,24.16
2023-05-15T05:53:46.230Z,24.14
2023-05-15T05:54:46.056Z,24.16
2023-05-15T05:55:46.117Z,24.17
2023-05-15T05:56:46.035Z,24.18
2023-05-15T05:57:46.103Z,24.18
2023-05-15T05:58:46.014Z,24.16
2023-05-15T05:59:46.088Z,24.17
2023-05-15T06:00:45.993Z,24.17
2023-05-15T06:01:46.092Z,24.21
2023-05-15T06:02:46.026Z,24.23
2023-05-15T06:03:46.161Z,24.18
2023-05-15T06:04:45.965Z,24.21
2023-05-15T06:05:46.035Z,24.23
2023-05-15T06:06:45.935Z,24.21
2023-05-15T06:07:46.004Z,24.23
2023-05-15T06:08:45.904Z,24.21
2023-05-15T06:09:45.979Z,24.23
2023-05-15T06:10:45.886Z,24.23
2023-05-15T06:11:46.031Z,24.21
2023-05-15T06:12:45.867Z,24.21
2023-05-15T06:13:45.945Z,24.20
2023-05-15T06:14:45.851Z,24.21
2023-05-15T06:15:45.924Z,24.20
2023-05-15T06:16:45.847Z,24.23
2023-05-15T06:17:45.930Z,24.23
2023-05-15T06:18:45.875Z,24.23
2023-05-15T06:19:45.879Z,24.23
2023-05-15T06:20:45.782Z,24.24
2023-05-15T06:21:45.839Z,24.23
2023-05-15T06:22:45.765Z,24.23
2023-05-15T06:23:45.845Z,24.24
2023-05-15T06:24:45.738Z,24.24
2023-05-15T06:25:45.806Z,24.26
2023-05-15T06:26:45.717Z,24.26
2023-05-15T06:27:45.826Z,24.24
2023-05-15T06:28:45.702Z,24.26
2023-05-15T06:29:45.764Z,24.28
2023-05-15T06:30:45.783Z,24.28
2023-05-15T06:31:45.753Z,24.26
2023-05-15T06:32:45.685Z,24.24
2023-05-15T06:33:45.724Z,24.24
2023-05-15T06:34:45.631Z,24.24
2023-05-15T06:35:45.712Z,24.24
2023-05-15T06:36:45.641Z,24.26
2023-05-15T06:37:45.682Z,24.26
2023-05-15T06:38:45.609Z,24.24
2023-05-15T06:39:45.782Z,24.24
2023-05-15T06:40:45.576Z,24.23
2023-05-15T06:41:45.630Z,24.24
2023-05-15T06:42:45.574Z,24.21
2023-05-15T06:43:45.661Z,24.23
2023-05-15T06:44:45.564Z,24.23
2023-05-15T06:45:45.588Z,24.23
2023-05-15T06:46:45.561Z,24.23
2023-05-15T06:47:45.591Z,24.21
2023-05-15T06:48:45.515Z,24.23
2023-05-15T06:49:45.548Z,24.23
2023-05-15T06:50:45.484Z,24.24
2023-05-15T06:51:45.561Z,24.24
2023-05-15T06:52:45.479Z,24.21
2023-05-15T06:53:45.505Z,24.24
2023-05-15T06:54:45.444Z,24.26
2023-05-15T06:55:45.482Z,24.28
2023-05-15T06:56:45.425Z,24.26
2023-05-15T06:57:45.469Z,24.28
2023-05-15T06:58:45.399Z,24.30
2023-05-15T06:59:45.446Z,24.30
2023-05-15T07:00:45.381Z,24.32
2023-05-15T07:01:45.485Z,24.29
2023-05-15T07:02:45.373Z,24.32
2023-05-15T07:03:45.397Z,24.30
2023-05-15T07:04:45.420Z,24.32
2023-05-15T07:05:45.398Z,24.29
2023-05-15T07:06:45.312Z,24.28
2023-05-15T07:07:45.357Z,24.30
2023-05-15T07:08:45.290Z,24.29
2023-05-15T07:09:45.344Z,24.28
2023-05-15T07:10:45.269Z,24.30
2023-05-15T07:11:45.332Z,24.29
2023-05-15T07:12:45.251Z,24.28
2023-05-15T07:13:45.300Z,24.28
2023-05-15T07:14:45.233Z,24.28
2023-05-15T07:15:45.300Z,24.28
2023-05-15T07:16:45.221Z,24.26
2023-05-15T07:17:45.366Z,24.26
2023-05-15T07:18:45.295Z,24.28
2023-05-15T07:19:45.244Z,24.24
2023-05-15T07:20:45.159Z,24.26
2023-05-15T07:21:45.217Z,24.24
2023-05-15T07:22:55.902Z,24.26
2023-05-15T07:23:45.192Z,24.26
2023-05-15T07:24:45.119Z,24.28
2023-05-15T07:25:46.195Z,24.24
2023-05-15T07:26:57.472Z,24.28
2023-05-15T07:27:45.148Z,24.28
2023-05-15T07:28:45.083Z,24.26
2023-05-15T07:29:45.138Z,24.26
2023-05-15T07:30:45.064Z,24.24
2023-05-15T07:31:45.158Z,24.24
2023-05-15T07:32:45.063Z,24.24
2023-05-15T07:33:45.078Z,24.24
2023-05-15T07:34:45.018Z,24.26
2023-05-15T07:35:45.065Z,24.23
2023-05-15T07:36:45.021Z,24.24
2023-05-15T07:37:45.061Z,24.26
2023-05-15T07:38:44.973Z,24.23
2023-05-15T07:39:45.132Z,24.24
2023-05-15T07:40:44.952Z,24.24
2023-05-15T07:41:44.991Z,24.24
2023-05-15T07:42:44.933Z,24.24
2023-05-15T07:43:44.981Z,24.23
2023-05-15T07:44:46.560Z,24.24
2023-05-15T07:45:44.999Z,24.24
2023-05-15T07:46:44.951Z,24.26
2023-05-15T07:47:45.202Z,24.24
2023-05-15T07:48:44.873Z,24.28
2023-05-15T07:49:44.927Z,24.28
2023-05-15T07:50:44.850Z,24.24
2023-05-15T07:51:44.906Z,24.29
2023-05-15T07:52:44.831Z,24.26
2023-05-15T07:53:44.883Z,24.29
2023-05-15T07:54:44.849Z,24.29
2023-05-15T07:55:45.001Z,24.29
2023-05-15T07:56:44.795Z,24.30
2023-05-15T07:57:45.094Z,24.32
2023-05-15T07:58:44.836Z,24.32
2023-05-15T07:59:44.820Z,24.36
2023-05-15T08:00:44.758Z,24.35
2023-05-15T08:01:44.782Z,24.35
2023-05-15T08:02:44.823Z,24.36
2023-05-15T08:03:44.889Z,24.36
2023-05-15T08:04:44.770Z,24.39
2023-05-15T08:05:44.765Z,24.40
2023-05-15T08:06:44.703Z,24.39
2023-05-15T08:07:44.727Z,24.42
2023-05-15T08:08:44.667Z,24.45
2023-05-15T08:09:44.697Z,24.47
2023-05-15T08:10:44.640Z,24.51
2023-05-15T08:11:44.690Z,24.50
2023-05-15T08:12:44.619Z,24.58
2023-05-15T08:13:44.711Z,24.61
2023-05-15T08:14:44.714Z,24.68
2023-05-15T08:15:44.663Z,24.73
2023-05-15T08:16:44.573Z,24.72
2023-05-15T08:17:44.708Z,24.77
2023-05-15T08:18:44.787Z,24.79
2023-05-15T08:19:44.544Z,24.83
2023-05-15T08:20:44.597Z,24.87
2023-05-15T08:21:44.514Z,24.91
2023-05-15T08:22:44.582Z,24.95
2023-05-15T08:23:44.488Z,24.98
2023-05-15T08:24:44.564Z,25.05
2023-05-15T08:25:44.652Z,25.09
2023-05-15T08:26:44.476Z,25.10
2023-05-15T08:27:44.565Z,25.15
2023-05-15T08:28:44.456Z,25.21
2023-05-15T08:29:44.503Z,25.24
2023-05-15T08:30:44.433Z,25.27
2023-05-15T08:31:44.507Z,25.30
2023-05-15T08:32:44.425Z,25.31
2023-05-15T08:33:44.450Z,25.34
2023-05-15T08:34:44.384Z,25.35
2023-05-15T08:35:44.454Z,25.31
2023-05-15T08:36:44.372Z,25.31
2023-05-15T08:37:44.421Z,25.30
2023-05-15T08:38:44.337Z,25.28
2023-05-15T08:39:44.389Z,25.27
2023-05-15T08:40:44.316Z,25.27
2023-05-15T08:41:44.374Z,25.27
2023-05-15T08:42:44.311Z,25.22
2023-05-15T08:43:44.338Z,25.22
2023-05-15T08:44:44.291Z,25.21
2023-05-15T08:45:44.395Z,25.21
2023-05-15T08:46:44.314Z,25.20
2023-05-15T08:47:44.368Z,25.17
2023-05-15T08:48:44.277Z,25.16
2023-05-15T08:49:44.279Z,25.17
2023-05-15T08:50:44.266Z,25.16
2023-05-15T08:51:44.259Z,25.17
2023-05-15T08:52:44.201Z,25.16
2023-05-15T08:53:44.324Z,25.16
2023-05-15T08:54:45.479Z,25.16
2023-05-15T08:55:44.224Z,25.15
2023-05-15T08:56:44.159Z,25.13
2023-05-15T08:57:44.204Z,25.15
2023-05-15T08:58:44.136Z,25.12
2023-05-15T08:59:44.183Z,25.12
2023-05-15T09:00:44.110Z,25.10
2023-05-15T09:01:44.190Z,25.10
2023-05-15T09:02:44.167Z,25.10
2023-05-15T09:03:44.198Z,25.10
2023-05-15T09:04:44.067Z,25.10
2023-05-15T09:05:44.117Z,25.09
2023-05-15T09:06:44.056Z,25.07
2023-05-15T09:07:44.092Z,25.07
2023-05-15T09:08:44.026Z,25.06
2023-05-15T09:09:44.077Z,25.06
2023-05-15T09:10:44.006Z,25.06
2023-05-15T09:11:44.046Z,25.07
2023-05-15T09:12:43.984Z,25.07
2023-05-15T09:13:44.031Z,25.05
2023-05-15T09:14:43.966Z,25.06
2023-05-15T09:15:44.014Z,25.05
2023-05-15T09:16:43.991Z,25.05
2023-05-15T09:17:44.030Z,25.03
2023-05-15T09:18:43.963Z,25.03
2023-05-15T09:19:43.974Z,25.03
2023-05-15T09:20:43.905Z,25.02
2023-05-15T09:21:43.948Z,25.02
2023-05-15T09:22:43.882Z,25.02
2023-05-15T09:23:43.929Z,25.03
2023-05-15T09:24:43.858Z,25.00
2023-05-15T09:25:43.901Z,25.03
2023-05-15T09:26:43.838Z,25.00
2023-05-15T09:27:43.879Z,25.00
2023-05-15T09:28:43.891Z,25.05
2023-05-15T09:29:43.883Z,25.02
2023-05-15T09:30:43.806Z,25.02
2023-05-15T09:31:43.907Z,25.02
2023-05-15T09:32:43.798Z,25.03
2023-05-15T09:33:43.822Z,25.02
2023-05-15T09:34:43.759Z,25.02
2023-05-15T09:35:43.805Z,25.00
2023-05-15T09:36:43.746Z,24.98
2023-05-15T09:37:43.783Z,24.98
2023-05-15T09:38:43.763Z,25.02
2023-05-15T09:39:43.775Z,25.02
2023-05-15T09:40:43.867Z,25.02
2023-05-15T09:41:43.672Z,25.02
2023-05-15T09:42:43.864Z,24.98
2023-05-15T09:43:43.654Z,25.00
2023-05-15T09:44:43.716Z,24.98
2023-05-15T09:45:43.664Z,25.03
2023-05-15T09:46:43.800Z,25.03
2023-05-15T09:47:43.674Z,25.02
2023-05-15T09:48:43.681Z,25.02
2023-05-15T09:49:43.583Z,25.02
2023-05-15T09:50:43.670Z,25.00
2023-05-15T09:51:43.560Z,24.98
2023-05-15T09:52:43.632Z,24.98
2023-05-15T09:53:43.549Z,25.00
2023-05-15T09:54:43.618Z,25.00
2023-05-15T09:55:43.533Z,25.00
2023-05-15T09:56:43.585Z,25.00
2023-05-15T09:57:43.493Z,24.98
2023-05-15T09:58:43.571Z,25.00
2023-05-15T09:59:43.477Z,24.98
2023-05-15T10:00:47.996Z,24.95
2023-05-15T10:01:43.523Z,24.98
2023-05-15T10:02:43.759Z,24.97
2023-05-15T10:03:43.443Z,24.98
2023-05-15T10:04:43.513Z,24.95
2023-05-15T10:05:44.246Z,24.97
2023-05-15T10:06:43.622Z,24.97
2023-05-15T10:07:43.419Z,24.95
2023-05-15T10:08:43.465Z,24.95
2023-05-15T10:09:43.382Z,24.97
2023-05-15T10:10:43.448Z,24.95
2023-05-15T10:11:43.376Z,24.94
2023-05-15T10:12:43.434Z,24.94
2023-05-15T10:13:43.548Z,24.95
2023-05-15T10:14:43.408Z,24.95
2023-05-15T10:15:43.332Z,24.95
2023-05-15T10:16:43.426Z,24.92
2023-05-15T10:17:43.305Z,24.95
2023-05-15T10:18:43.398Z,24.94
2023-05-15T10:19:56.723Z,24.95
2023-05-15T10:20:43.354Z,24.95
2023-05-15T10:21:43.243Z,24.95
2023-05-15T10:22:43.316Z,24.95
2023-05-15T10:23:43.222Z,24.95
2023-05-15T10:24:43.287Z,24.94
2023-05-15T10:25:43.216Z,24.94
2023-05-15T10:26:43.274Z,24.94
2023-05-15T10:27:43.183Z,24.94
2023-05-15T10:28:44.804Z,24.95
2023-05-15T10:29:43.171Z,24.95
2023-05-15T10:30:43.231Z,24.94
2023-05-15T10:31:43.168Z,24.95
2023-05-15T10:32:43.294Z,24.97
2023-05-15T10:33:43.129Z,24.95
2023-05-15T10:34:43.251Z,24.94
2023-05-15T10:35:43.119Z,24.97
2023-05-15T10:36:43.365Z,24.95
2023-05-15T10:37:43.085Z,24.94
2023-05-15T10:38:43.152Z,24.94
2023-05-15T10:39:43.050Z,24.94
2023-05-15T10:40:43.134Z,24.94
2023-05-15T10:41:43.049Z,24.95
2023-05-15T10:42:43.159Z,24.94
2023-05-15T10:43:43.009Z,24.94
2023-05-15T10:44:43.086Z,24.92
2023-05-15T10:45:42.987Z,24.92
2023-05-15T10:46:43.093Z,24.92
2023-05-15T10:47:42.980Z,24.92
2023-05-15T10:48:43.033Z,24.92
2023-05-15T10:49:42.945Z,24.91
2023-05-15T10:50:43.018Z,24.92
2023-05-15T10:51:42.928Z,24.94
2023-05-15T10:52:42.986Z,24.92
2023-05-15T10:53:42.902Z,24.92
2023-05-15T10:54:42.969Z,24.92
2023-05-15T10:55:42.908Z,24.92
2023-05-15T10:56:42.961Z,24.92
2023-05-15T10:57:42.881Z,24.92
2023-05-15T10:58:42.918Z,24.91
2023-05-15T10:59:42.850Z,24.94
2023-05-15T11:00:42.904Z,24.91
2023-05-15T11:01:42.920Z,24.92
2023-05-15T11:02:42.903Z,24.94
2023-05-15T11:03:49.108Z,24.94
2023-05-15T11:04:42.929Z,24.94
2023-05-15T11:05:42.815Z,24.94
2023-05-15T11:06:42.827Z,24.95
2023-05-15T11:07:42.771Z,24.95
2023-05-15T11:08:42.808Z,24.94
2023-05-15T11:09:42.745Z,24.98
2023-05-15T11:10:42.793Z,25.02
2023-05-15T11:11:42.723Z,25.03
2023-05-15T11:12:42.771Z,25.06
2023-05-15T11:13:42.707Z,25.09
2023-05-15T11:14:42.760Z,25.10
2023-05-15T11:15:42.722Z,25.12
2023-05-15T11:16:42.754Z,25.15
2023-05-15T11:17:42.683Z,25.15
2023-05-15T11:18:42.766Z,25.16
2023-05-15T11:19:42.634Z,25.17
2023-05-15T11:20:42.682Z,25.21
2023-05-15T11:21:42.615Z,25.21
2023-05-15T11:22:42.666Z,25.22
2023-05-15T11:23:42.623Z,25.21
2023-05-15T11:24:42.655Z,25.21
2023-05-15T11:25:42.570Z,25.22
2023-05-15T11:26:42.619Z,25.20
2023-05-15T11:27:42.554Z,25.17
2023-05-15T11:28:42.603Z,25.17
2023-05-15T11:29:42.529Z,25.12
2023-05-15T11:30:42.590Z,25.12
2023-05-15T11:31:42.505Z,25.10
2023-05-15T11:32:42.623Z,25.07
2023-05-15T11:33:42.483Z,25.06
2023-05-15T11:34:42.522Z,25.05
2023-05-15T11:35:42.464Z,25.02
2023-05-15T11:36:42.503Z,24.98
2023-05-15T11:37:42.446Z,24.97
2023-05-15T11:38:42.494Z,24.92
2023-05-15T11:39:42.418Z,24.88
2023-05-15T11:40:42.460Z,24.90
2023-05-15T11:41:42.397Z,24.85
2023-05-15T11:42:42.469Z,24.87
2023-05-15T11:43:42.381Z,24.84
2023-05-15T11:44:42.429Z,24.80
2023-05-15T11:45:42.361Z,24.77
2023-05-15T11:46:42.407Z,24.76
2023-05-15T11:47:42.433Z,24.73
2023-05-15T11:48:42.383Z,24.69
2023-05-15T11:49:42.318Z,24.69
2023-05-15T11:50:42.375Z,24.69
2023-05-15T11:51:42.294Z,24.65
2023-05-15T11:52:42.354Z,24.61
2023-05-15T11:53:42.281Z,24.60
2023-05-15T11:54:42.322Z,24.58
2023-05-15T11:55:42.251Z,24.55
2023-05-15T11:56:42.316Z,24.54
2023-05-15T11:57:42.230Z,24.55
2023-05-15T11:58:42.275Z,24.54
2023-05-15T11:59:42.217Z,24.55
2023-05-15T12:00:42.257Z,24.55
2023-05-15T12:01:42.192Z,24.55
2023-05-15T12:02:42.315Z,24.55
2023-05-15T12:03:42.314Z,24.54
2023-05-15T12:04:42.319Z,24.53
2023-05-15T12:05:53.668Z,24.51
2023-05-15T12:06:42.190Z,24.54
2023-05-15T12:07:42.135Z,24.54
2023-05-15T12:08:42.276Z,24.54
2023-05-15T12:09:42.128Z,24.55
2023-05-15T12:10:42.160Z,24.60
2023-05-15T12:11:42.092Z,24.61
2023-05-15T12:12:42.146Z,24.60
2023-05-15T12:13:42.075Z,24.61
2023-05-15T12:14:42.108Z,24.65
2023-05-15T12:15:42.196Z,24.70
2023-05-15T12:16:42.069Z,24.73
2023-05-15T12:17:42.439Z,24.76
2023-05-15T12:18:42.061Z,24.76
2023-05-15T12:19:42.070Z,24.79
2023-05-15T12:20:41.981Z,24.83
2023-05-15T12:21:42.041Z,24.85
2023-05-15T12:22:41.968Z,24.85
2023-05-15T12:23:42.035Z,24.90
2023-05-15T12:24:41.939Z,24.92
2023-05-15T12:25:42.015Z,24.97
2023-05-15T12:26:41.920Z,25.02
2023-05-15T12:27:41.997Z,25.03
2023-05-15T12:28:41.899Z,25.05
2023-05-15T12:29:41.961Z,25.07
2023-05-15T12:30:41.877Z,25.09
2023-05-15T12:31:41.987Z,25.09
2023-05-15T12:32:41.910Z,25.13
2023-05-15T12:33:41.930Z,25.16
2023-05-15T12:34:41.838Z,25.17
2023-05-15T12:35:41.903Z,25.21
2023-05-15T12:36:41.813Z,25.21
2023-05-15T12:37:41.878Z,25.22
2023-05-15T12:38:41.791Z,25.24
2023-05-15T12:39:41.868Z,25.24
2023-05-15T12:40:41.772Z,25.22
2023-05-15T12:41:41.877Z,25.24
2023-05-15T12:42:41.757Z,25.27
2023-05-15T12:43:41.815Z,25.27
2023-05-15T12:44:41.729Z,25.30
2023-05-15T12:45:41.923Z,25.32
2023-05-15T12:46:41.730Z,25.32
2023-05-15T12:47:41.886Z,25.34
2023-05-15T12:48:41.687Z,25.35
2023-05-15T12:49:41.767Z,25.35
2023-05-15T12:50:41.669Z,25.37
2023-05-15T12:51:41.746Z,25.39
2023-05-15T12:52:41.945Z,25.37